sensor_id;sensor_type;location;lat;lon;timestamp;pressure;altitude;pressure_sealevel;temperature;humidity
498;BME280;39559;48.630;9.162;2023-11-21T00:01:35;97072.94;;;5.58;100.00
498;BME280;39559;48.630;9.162;2023-11-21T00:06:03;97082.66;;;5.79;100.00
498;BME280;39559;48.630;9.162;2023-11-21T00:08:29;97081.03;;;5.74;100.00
498;BME280;39559;48.630;9.162;2023-11-21T00:10:55;97073.09;;;5.82;100.00
498;BME280;39559;48.630;9.162;2023-11-21T00:13:20;97070.31;;;5.88;100.00
498;BME280;39559;48.630;9.162;2023-11-21T00:15:46;97064.38;;;5.86;100.00
498;BME280;39559;48.630;9.162;2023-11-21T00:18:11;97064.50;;;5.82;100.00
498;BME280;39559;48.630;9.162;2023-11-21T00:20:37;97055.06;;;5.82;100.00
498;BME280;39559;48.630;9.162;2023-11-21T00:23:02;97051.19;;;5.97;100.00
498;BME280;39559;48.630;9.162;2023-11-21T00:25:28;97043.72;;;5.88;100.00
498;BME280;39559;48.630;9.162;2023-11-21T00:30:03;97053.22;;;5.86;100.00
498;BME280;39559;48.630;9.162;2023-11-21T00:32:32;97054.66;;;5.96;100.00
498;BME280;39559;48.630;9.162;2023-11-21T00:34:58;97048.72;;;5.92;100.00
498;BME280;39559;48.630;9.162;2023-11-21T00:37:24;97047.91;;;5.90;100.00
498;BME280;39559;48.630;9.162;2023-11-21T00:39:50;97048.16;;;5.83;100.00
498;BME280;39559;48.630;9.162;2023-11-21T00:42:15;97044.59;;;5.87;100.00
498;BME280;39559;48.630;9.162;2023-11-21T00:44:41;97044.88;;;5.77;100.00
498;BME280;39559;48.630;9.162;2023-11-21T00:47:07;97048.00;;;5.87;100.00
498;BME280;39559;48.630;9.162;2023-11-21T00:49:33;97051.44;;;5.88;100.00
498;BME280;39559;48.630;9.162;2023-11-21T00:54:02;97061.63;;;5.91;100.00
498;BME280;39559;48.630;9.162;2023-11-21T00:56:28;97063.41;;;5.89;100.00
498;BME280;39559;48.630;9.162;2023-11-21T00:58:53;97055.59;;;5.92;100.00
498;BME280;39559;48.630;9.162;2023-11-21T01:01:20;97055.44;;;5.98;100.00
498;BME280;39559;48.630;9.162;2023-11-21T01:03:46;97049.50;;;5.96;100.00
498;BME280;39559;48.630;9.162;2023-11-21T01:06:12;97053.78;;;5.97;100.00
498;BME280;39559;48.630;9.162;2023-11-21T01:08:37;97047.63;;;6.01;100.00
498;BME280;39559;48.630;9.162;2023-11-21T01:11:03;97045.09;;;6.00;100.00
498;BME280;39559;48.630;9.162;2023-11-21T01:13:30;97040.69;;;6.03;100.00
498;BME280;39559;48.630;9.162;2023-11-21T01:18:01;97030.38;;;6.03;100.00
498;BME280;39559;48.630;9.162;2023-11-21T01:20:26;97035.38;;;6.08;100.00
498;BME280;39559;48.630;9.162;2023-11-21T01:22:52;97029.56;;;6.01;100.00
498;BME280;39559;48.630;9.162;2023-11-21T01:25:19;97028.88;;;5.96;100.00
498;BME280;39559;48.630;9.162;2023-11-21T01:27:46;97032.50;;;5.89;100.00
498;BME280;39559;48.630;9.162;2023-11-21T01:30:12;97033.19;;;5.95;100.00
498;BME280;39559;48.630;9.162;2023-11-21T01:32:38;97021.16;;;5.94;100.00
498;BME280;39559;48.630;9.162;2023-11-21T01:35:05;97029.72;;;5.96;100.00
498;BME280;39559;48.630;9.162;2023-11-21T01:37:32;97021.16;;;5.94;100.00
498;BME280;39559;48.630;9.162;2023-11-21T01:41:59;97010.09;;;5.91;100.00
498;BME280;39559;48.630;9.162;2023-11-21T01:44:25;96999.91;;;5.88;100.00
498;BME280;39559;48.630;9.162;2023-11-21T01:46:51;96999.66;;;5.97;100.00
498;BME280;39559;48.630;9.162;2023-11-21T01:49:17;97000.53;;;5.96;100.00
498;BME280;39559;48.630;9.162;2023-11-21T01:51:45;96990.22;;;5.96;100.00
498;BME280;39559;48.630;9.162;2023-11-21T01:54:12;96995.06;;;6.05;100.00
498;BME280;39559;48.630;9.162;2023-11-21T01:56:38;96985.38;;;6.13;100.00
498;BME280;39559;48.630;9.162;2023-11-21T01:59:05;97001.88;;;6.08;100.00
498;BME280;39559;48.630;9.162;2023-11-21T02:01:33;97001.97;;;6.05;100.00
498;BME280;39559;48.630;9.162;2023-11-21T02:05:59;97003.94;;;5.96;100.00
498;BME280;39559;48.630;9.162;2023-11-21T02:08:24;96995.31;;;5.98;100.00
498;BME280;39559;48.630;9.162;2023-11-21T02:10:49;96999.53;;;5.72;100.00
498;BME280;39559;48.630;9.162;2023-11-21T02:13:15;96986.41;;;5.80;100.00
498;BME280;39559;48.630;9.162;2023-11-21T02:15:41;96998.00;;;5.93;100.00
498;BME280;39559;48.630;9.162;2023-11-21T02:18:07;96996.16;;;5.98;100.00
498;BME280;39559;48.630;9.162;2023-11-21T02:20:35;96994.50;;;5.97;100.00
498;BME280;39559;48.630;9.162;2023-11-21T02:23:02;96993.81;;;5.90;100.00
498;BME280;39559;48.630;9.162;2023-11-21T02:25:29;96986.41;;;5.80;100.00
498;BME280;39559;48.630;9.162;2023-11-21T02:29:58;96973.00;;;5.70;100.00
498;BME280;39559;48.630;9.162;2023-11-21T02:32:23;96977.38;;;5.66;100.00
498;BME280;39559;48.630;9.162;2023-11-21T02:34:51;96965.59;;;5.59;100.00
498;BME280;39559;48.630;9.162;2023-11-21T02:37:16;96961.31;;;5.58;100.00
498;BME280;39559;48.630;9.162;2023-11-21T02:39:42;96962.94;;;5.62;100.00
498;BME280;39559;48.630;9.162;2023-11-21T02:42:08;96960.56;;;5.54;100.00
498;BME280;39559;48.630;9.162;2023-11-21T02:44:33;96963.38;;;5.47;100.00
498;BME280;39559;48.630;9.162;2023-11-21T02:47:00;96966.75;;;5.49;100.00
498;BME280;39559;48.630;9.162;2023-11-21T02:49:25;96962.38;;;5.24;100.00
498;BME280;39559;48.630;9.162;2023-11-21T02:53:57;96961.50;;;5.24;100.00
498;BME280;39559;48.630;9.162;2023-11-21T02:56:26;96971.63;;;5.30;100.00
498;BME280;39559;48.630;9.162;2023-11-21T02:58:55;96984.22;;;5.39;100.00
498;BME280;39559;48.630;9.162;2023-11-21T03:01:21;96978.75;;;5.50;100.00
498;BME280;39559;48.630;9.162;2023-11-21T03:03:49;96975.19;;;5.54;100.00
498;BME280;39559;48.630;9.162;2023-11-21T03:06:20;96973.31;;;5.59;100.00
498;BME280;39559;48.630;9.162;2023-11-21T03:08:46;96965.38;;;5.65;100.00
498;BME280;39559;48.630;9.162;2023-11-21T03:11:12;96970.41;;;5.70;100.00
498;BME280;39559;48.630;9.162;2023-11-21T03:13:41;96959.16;;;5.72;100.00
498;BME280;39559;48.630;9.162;2023-11-21T03:17:56;96946.13;;;5.77;100.00
498;BME280;39559;48.630;9.162;2023-11-21T03:20:22;96948.47;;;5.85;100.00
498;BME280;39559;48.630;9.162;2023-11-21T03:22:47;96934.97;;;5.76;100.00
498;BME280;39559;48.630;9.162;2023-11-21T03:25:13;96933.47;;;5.69;100.00
498;BME280;39559;48.630;9.162;2023-11-21T03:27:39;96929.38;;;5.64;100.00
498;BME280;39559;48.630;9.162;2023-11-21T03:30:05;96932.41;;;5.50;100.00
498;BME280;39559;48.630;9.162;2023-11-21T03:32:33;96938.94;;;5.60;100.00
498;BME280;39559;48.630;9.162;2023-11-21T03:34:58;96938.84;;;5.63;100.00
498;BME280;39559;48.630;9.162;2023-11-21T03:37:24;96932.78;;;5.66;100.00
498;BME280;39559;48.630;9.162;2023-11-21T03:41:55;96937.16;;;5.62;100.00
498;BME280;39559;48.630;9.162;2023-11-21T03:44:20;96933.59;;;5.66;100.00
498;BME280;39559;48.630;9.162;2023-11-21T03:46:47;96936.97;;;5.68;100.00
498;BME280;39559;48.630;9.162;2023-11-21T03:49:12;96940.63;;;5.61;100.00
498;BME280;39559;48.630;9.162;2023-11-21T03:51:38;96946.56;;;5.63;100.00
498;BME280;39559;48.630;9.162;2023-11-21T03:54:04;96951.59;;;5.68;100.00
498;BME280;39559;48.630;9.162;2023-11-21T03:56:31;96949.69;;;5.73;100.00
498;BME280;39559;48.630;9.162;2023-11-21T03:58:57;96937.47;;;5.80;100.00
498;BME280;39559;48.630;9.162;2023-11-21T04:01:22;96930.72;;;5.75;100.00
498;BME280;39559;48.630;9.162;2023-11-21T04:05:54;96930.84;;;5.71;100.00
498;BME280;39559;48.630;9.162;2023-11-21T04:08:20;96924.75;;;5.75;100.00
498;BME280;39559;48.630;9.162;2023-11-21T04:10:46;96931.50;;;5.77;100.00
498;BME280;39559;48.630;9.162;2023-11-21T04:13:13;96935.78;;;5.79;100.00
498;BME280;39559;48.630;9.162;2023-11-21T04:15:39;96934.00;;;5.81;100.00
498;BME280;39559;48.630;9.162;2023-11-21T04:18:06;96943.41;;;5.82;100.00
498;BME280;39559;48.630;9.162;2023-11-21T04:20:33;96937.31;;;5.84;100.00
498;BME280;39559;48.630;9.162;2023-11-21T04:23:01;96932.78;;;5.91;100.00
498;BME280;39559;48.630;9.162;2023-11-21T04:25:27;96941.44;;;5.90;100.00
498;BME280;39559;48.630;9.162;2023-11-21T04:29:57;96942.22;;;5.92;100.00
498;BME280;39559;48.630;9.162;2023-11-21T04:32:24;96949.53;;;6.06;100.00
498;BME280;39559;48.630;9.162;2023-11-21T04:34:58;96948.66;;;6.05;100.00
498;BME280;39559;48.630;9.162;2023-11-21T04:37:26;96956.38;;;6.07;100.00
498;BME280;39559;48.630;9.162;2023-11-21T04:39:52;96949.63;;;6.03;100.00
498;BME280;39559;48.630;9.162;2023-11-21T04:42:17;96949.69;;;6.01;100.00
498;BME280;39559;48.630;9.162;2023-11-21T04:44:43;96957.94;;;5.84;100.00
498;BME280;39559;48.630;9.162;2023-11-21T04:47:09;96966.25;;;5.92;100.00
498;BME280;39559;48.630;9.162;2023-11-21T04:49:35;96970.09;;;6.07;100.00
498;BME280;39559;48.630;9.162;2023-11-21T04:53:53;96970.25;;;6.03;100.00
498;BME280;39559;48.630;9.162;2023-11-21T04:56:18;96965.31;;;5.95;100.00
498;BME280;39559;48.630;9.162;2023-11-21T04:58:44;96961.25;;;5.88;100.00
498;BME280;39559;48.630;9.162;2023-11-21T05:01:09;96977.59;;;5.87;100.00
498;BME280;39559;48.630;9.162;2023-11-21T05:03:35;96974.19;;;5.86;100.00
498;BME280;39559;48.630;9.162;2023-11-21T05:06:00;96974.22;;;5.85;100.00
498;BME280;39559;48.630;9.162;2023-11-21T05:08:26;96977.59;;;5.87;100.00
498;BME280;39559;48.630;9.162;2023-11-21T05:10:52;96974.13;;;5.88;100.00
498;BME280;39559;48.630;9.162;2023-11-21T05:13:20;96971.69;;;5.83;100.00
498;BME280;39559;48.630;9.162;2023-11-21T05:17:52;96966.84;;;5.74;100.00
498;BME280;39559;48.630;9.162;2023-11-21T05:20:19;96970.41;;;5.70;100.00
498;BME280;39559;48.630;9.162;2023-11-21T05:22:49;96977.16;;;5.74;100.00
498;BME280;39559;48.630;9.162;2023-11-21T05:25:15;96985.66;;;5.76;100.00
498;BME280;39559;48.630;9.162;2023-11-21T05:27:42;96990.72;;;5.79;100.00
498;BME280;39559;48.630;9.162;2023-11-21T05:30:08;96991.56;;;5.80;100.00
498;BME280;39559;48.630;9.162;2023-11-21T05:32:38;96997.56;;;5.80;100.00
498;BME280;39559;48.630;9.162;2023-11-21T05:35:04;97010.38;;;5.82;100.00
498;BME280;39559;48.630;9.162;2023-11-21T05:37:35;97011.13;;;5.85;100.00
498;BME280;39559;48.630;9.162;2023-11-21T05:41:51;97020.16;;;6.00;100.00
498;BME280;39559;48.630;9.162;2023-11-21T05:44:17;97026.03;;;6.04;100.00
498;BME280;39559;48.630;9.162;2023-11-21T05:46:43;97032.59;;;6.14;100.00
498;BME280;39559;48.630;9.162;2023-11-21T05:49:08;97018.47;;;5.99;100.00
498;BME280;39559;48.630;9.162;2023-11-21T05:51:34;97023.16;;;5.86;100.00
498;BME280;39559;48.630;9.162;2023-11-21T05:53:59;97036.88;;;5.87;100.00
498;BME280;39559;48.630;9.162;2023-11-21T05:56:25;97040.34;;;5.86;100.00
498;BME280;39559;48.630;9.162;2023-11-21T05:58:50;97037.84;;;5.83;100.00
498;BME280;39559;48.630;9.162;2023-11-21T06:01:16;97045.50;;;5.86;100.00
498;BME280;39559;48.630;9.162;2023-11-21T06:05:51;97039.97;;;5.98;100.00
498;BME280;39559;48.630;9.162;2023-11-21T06:08:16;97036.53;;;5.99;100.00
498;BME280;39559;48.630;9.162;2023-11-21T06:10:42;97036.22;;;6.08;100.00
498;BME280;39559;48.630;9.162;2023-11-21T06:13:09;97032.63;;;5.86;100.00
498;BME280;39559;48.630;9.162;2023-11-21T06:15:36;97041.22;;;5.85;100.00
498;BME280;39559;48.630;9.162;2023-11-21T06:18:01;97044.59;;;5.87;100.00
498;BME280;39559;48.630;9.162;2023-11-21T06:20:27;97048.25;;;5.80;100.00
498;BME280;39559;48.630;9.162;2023-11-21T06:22:53;97041.13;;;5.88;100.00
498;BME280;39559;48.630;9.162;2023-11-21T06:25:19;97054.41;;;6.04;100.00
498;BME280;39559;48.630;9.162;2023-11-21T06:29:50;97051.56;;;5.83;100.00
498;BME280;39559;48.630;9.162;2023-11-21T06:32:16;97055.25;;;5.74;100.00
498;BME280;39559;48.630;9.162;2023-11-21T06:34:41;97062.47;;;5.63;100.00
498;BME280;39559;48.630;9.162;2023-11-21T06:37:07;97068.47;;;5.64;100.00
498;BME280;39559;48.630;9.162;2023-11-21T06:39:32;97075.84;;;5.76;100.00
498;BME280;39559;48.630;9.162;2023-11-21T06:41:58;97073.72;;;5.61;100.00
498;BME280;39559;48.630;9.162;2023-11-21T06:44:25;97076.06;;;5.68;100.00
498;BME280;39559;48.630;9.162;2023-11-21T06:46:51;97089.31;;;5.56;100.00
498;BME280;39559;48.630;9.162;2023-11-21T06:49:17;97099.22;;;5.70;100.00
498;BME280;39559;48.630;9.162;2023-11-21T06:53:49;97101.53;;;5.79;100.00
498;BME280;39559;48.630;9.162;2023-11-21T06:56:16;97111.88;;;5.77;100.00
498;BME280;39559;48.630;9.162;2023-11-21T06:58:42;97106.09;;;5.69;100.00
498;BME280;39559;48.630;9.162;2023-11-21T07:01:08;97111.03;;;5.77;100.00
498;BME280;39559;48.630;9.162;2023-11-21T07:03:33;97114.25;;;5.84;100.00
498;BME280;39559;48.630;9.162;2023-11-21T07:05:59;97121.81;;;5.90;100.00
498;BME280;39559;48.630;9.162;2023-11-21T07:08:24;97124.63;;;5.82;100.00
498;BME280;39559;48.630;9.162;2023-11-21T07:10:50;97118.44;;;5.88;100.00
498;BME280;39559;48.630;9.162;2023-11-21T07:13:15;97128.75;;;5.88;100.00
498;BME280;39559;48.630;9.162;2023-11-21T07:17:48;97125.66;;;6.06;100.00
498;BME280;39559;48.630;9.162;2023-11-21T07:20:14;97124.97;;;6.00;100.00
498;BME280;39559;48.630;9.162;2023-11-21T07:22:42;97124.16;;;5.99;100.00
498;BME280;39559;48.630;9.162;2023-11-21T07:25:08;97133.38;;;6.06;100.00
498;BME280;39559;48.630;9.162;2023-11-21T07:27:35;97133.19;;;6.12;100.00
498;BME280;39559;48.630;9.162;2023-11-21T07:30:02;97129.41;;;6.24;100.00
498;BME280;39559;48.630;9.162;2023-11-21T07:32:31;97128.50;;;6.25;100.00
498;BME280;39559;48.630;9.162;2023-11-21T07:34:56;97130.13;;;6.29;100.00
498;BME280;39559;48.630;9.162;2023-11-21T07:37:23;97130.81;;;6.33;100.00
498;BME280;39559;48.630;9.162;2023-11-21T07:41:48;97144.63;;;6.32;100.00
498;BME280;39559;48.630;9.162;2023-11-21T07:44:15;97146.22;;;6.36;100.00
498;BME280;39559;48.630;9.162;2023-11-21T07:46:41;97146.31;;;6.33;100.00
498;BME280;39559;48.630;9.162;2023-11-21T07:49:07;97155.59;;;6.39;100.00
498;BME280;39559;48.630;9.162;2023-11-21T07:51:32;97155.41;;;6.45;100.00
498;BME280;39559;48.630;9.162;2023-11-21T07:53:58;97159.72;;;6.44;100.00
498;BME280;39559;48.630;9.162;2023-11-21T07:56:24;97165.59;;;6.49;100.00
498;BME280;39559;48.630;9.162;2023-11-21T07:58:49;97166.13;;;6.59;100.00
498;BME280;39559;48.630;9.162;2023-11-21T08:01:15;97150.78;;;6.54;100.00
498;BME280;39559;48.630;9.162;2023-11-21T08:05:47;97137.66;;;6.62;100.00
498;BME280;39559;48.630;9.162;2023-11-21T08:08:13;97138.59;;;6.60;100.00
498;BME280;39559;48.630;9.162;2023-11-21T08:10:38;97148.88;;;6.61;100.00
498;BME280;39559;48.630;9.162;2023-11-21T08:13:05;97159.13;;;6.63;100.00
498;BME280;39559;48.630;9.162;2023-11-21T08:15:31;97159.13;;;6.63;100.00
498;BME280;39559;48.630;9.162;2023-11-21T08:17:58;97162.59;;;6.62;100.00
498;BME280;39559;48.630;9.162;2023-11-21T08:20:26;97168.50;;;6.65;100.00
498;BME280;39559;48.630;9.162;2023-11-21T08:22:53;97169.72;;;6.55;100.00
498;BME280;39559;48.630;9.162;2023-11-21T08:25:20;97171.34;;;6.58;100.00
498;BME280;39559;48.630;9.162;2023-11-21T08:29:46;97172.13;;;6.60;100.00
498;BME280;39559;48.630;9.162;2023-11-21T08:32:11;97179.00;;;6.61;100.00
498;BME280;39559;48.630;9.162;2023-11-21T08:34:37;97177.50;;;6.53;100.00
498;BME280;39559;48.630;9.162;2023-11-21T08:37:05;97186.91;;;6.54;100.00
498;BME280;39559;48.630;9.162;2023-11-21T08:39:31;97181.06;;;6.49;100.00
498;BME280;39559;48.630;9.162;2023-11-21T08:41:57;97179.88;;;6.60;100.00
498;BME280;39559;48.630;9.162;2023-11-21T08:44:23;97184.91;;;6.64;100.00
498;BME280;39559;48.630;9.162;2023-11-21T08:46:48;97180.97;;;6.79;100.00
498;BME280;39559;48.630;9.162;2023-11-21T08:49:14;97180.59;;;6.91;100.00
498;BME280;39559;48.630;9.162;2023-11-21T08:53:46;97167.91;;;6.84;100.00
498;BME280;39559;48.630;9.162;2023-11-21T08:56:13;97165.94;;;6.92;100.00
498;BME280;39559;48.630;9.162;2023-11-21T08:58:44;97166.78;;;6.92;100.00
498;BME280;39559;48.630;9.162;2023-11-21T09:01:09;97159.03;;;6.92;100.00
498;BME280;39559;48.630;9.162;2023-11-21T09:03:35;97168.56;;;6.90;100.00
498;BME280;39559;48.630;9.162;2023-11-21T09:06:00;97172.16;;;6.86;100.00
498;BME280;39559;48.630;9.162;2023-11-21T09:08:26;97183.47;;;7.07;100.00
498;BME280;39559;48.630;9.162;2023-11-21T09:10:53;97168.38;;;7.22;100.00
498;BME280;39559;48.630;9.162;2023-11-21T09:13:19;97170.47;;;7.36;100.00
498;BME280;39559;48.630;9.162;2023-11-21T09:17:45;97169.91;;;7.76;100.00
498;BME280;39559;48.630;9.162;2023-11-21T09:20:11;97163.41;;;7.90;100.00
498;BME280;39559;48.630;9.162;2023-11-21T09:22:36;97164.56;;;8.04;100.00
498;BME280;39559;48.630;9.162;2023-11-21T09:25:02;97159.97;;;8.11;100.00
498;BME280;39559;48.630;9.162;2023-11-21T09:27:31;97142.44;;;8.19;100.00
498;BME280;39559;48.630;9.162;2023-11-21T09:29:56;97146.63;;;8.00;100.00
498;BME280;39559;48.630;9.162;2023-11-21T09:32:23;97153.34;;;8.04;100.00
498;BME280;39559;48.630;9.162;2023-11-21T09:34:51;97153.66;;;7.96;100.00
498;BME280;39559;48.630;9.162;2023-11-21T09:37:18;97158.75;;;7.50;100.00
498;BME280;39559;48.630;9.162;2023-11-21T09:41:59;97161.13;;;7.80;100.00
498;BME280;39559;48.630;9.162;2023-11-21T09:47:21;97155.34;;;7.74;100.00
498;BME280;39559;48.630;9.162;2023-11-21T09:49:48;97158.00;;;7.72;100.00
498;BME280;39559;48.630;9.162;2023-11-21T09:52:25;97159.50;;;7.78;100.00
498;BME280;39559;48.630;9.162;2023-11-21T09:54:53;97160.88;;;7.88;100.00
498;BME280;39559;48.630;9.162;2023-11-21T09:57:44;97166.47;;;7.99;100.00
498;BME280;39559;48.630;9.162;2023-11-21T10:00:11;97162.03;;;8.03;100.00
498;BME280;39559;48.630;9.162;2023-11-21T10:02:39;97149.84;;;7.83;100.00
498;BME280;39559;48.630;9.162;2023-11-21T10:05:45;97157.31;;;7.91;100.00
498;BME280;39559;48.630;9.162;2023-11-21T10:08:13;97151.50;;;7.84;100.00
498;BME280;39559;48.630;9.162;2023-11-21T10:10:43;97145.34;;;8.12;100.00
498;BME280;39559;48.630;9.162;2023-11-21T10:13:20;97146.16;;;8.12;100.00
498;BME280;39559;48.630;9.162;2023-11-21T10:15:52;97150.78;;;7.80;100.00
498;BME280;39559;48.630;9.162;2023-11-21T10:18:18;97146.63;;;7.76;100.00
498;BME280;39559;48.630;9.162;2023-11-21T10:20:45;97153.50;;;8.01;100.00
498;BME280;39559;48.630;9.162;2023-11-21T10:23:19;97142.75;;;8.12;100.00
498;BME280;39559;48.630;9.162;2023-11-21T10:25:44;97149.00;;;8.28;100.00
498;BME280;39559;48.630;9.162;2023-11-21T10:29:42;97131.63;;;8.32;100.00
498;BME280;39559;48.630;9.162;2023-11-21T10:32:07;97130.72;;;8.33;100.00
498;BME280;39559;48.630;9.162;2023-11-21T10:34:33;97136.81;;;8.32;100.00
498;BME280;39559;48.630;9.162;2023-11-21T10:37:13;97140.03;;;8.15;100.00
498;BME280;39559;48.630;9.162;2023-11-21T10:39:40;97143.28;;;8.20;100.00
498;BME280;39559;48.630;9.162;2023-11-21T10:42:09;97150.72;;;7.82;100.00
498;BME280;39559;48.630;9.162;2023-11-21T10:44:38;97155.31;;;7.99;100.00
498;BME280;39559;48.630;9.162;2023-11-21T10:47:03;97163.78;;;8.02;100.00
498;BME280;39559;48.630;9.162;2023-11-21T10:49:30;97171.59;;;7.77;100.00
498;BME280;39559;48.630;9.162;2023-11-21T10:53:42;97167.84;;;7.62;100.00
498;BME280;39559;48.630;9.162;2023-11-21T10:56:09;97181.59;;;7.63;100.00
498;BME280;39559;48.630;9.162;2023-11-21T10:58:43;97187.06;;;7.79;100.00
498;BME280;39559;48.630;9.162;2023-11-21T11:01:09;97201.69;;;7.55;100.00
498;BME280;39559;48.630;9.162;2023-11-21T11:03:40;97189.38;;;7.61;100.00
498;BME280;39559;48.630;9.162;2023-11-21T11:06:07;97197.03;;;7.64;100.00
498;BME280;39559;48.630;9.162;2023-11-21T11:08:40;97192.22;;;7.55;100.00
498;BME280;39559;48.630;9.162;2023-11-21T11:11:06;97192.16;;;7.57;100.00
498;BME280;39559;48.630;9.162;2023-11-21T11:13:32;97194.06;;;7.52;100.00
498;BME280;39559;48.630;9.162;2023-11-21T11:17:40;97206.19;;;7.49;100.00
498;BME280;39559;48.630;9.162;2023-11-21T11:20:08;97208.63;;;7.53;100.00
498;BME280;39559;48.630;9.162;2023-11-21T11:28:04;97209.22;;;7.61;100.00
498;BME280;39559;48.630;9.162;2023-11-21T11:33:14;97204.09;;;7.59;100.00
498;BME280;39559;48.630;9.162;2023-11-21T11:38:22;97224.31;;;7.48;100.00
498;BME280;39559;48.630;9.162;2023-11-21T11:41:44;97233.22;;;7.39;100.00
498;BME280;39559;48.630;9.162;2023-11-21T11:47:26;97254.09;;;7.33;100.00
498;BME280;39559;48.630;9.162;2023-11-21T11:50:04;97260.28;;;7.27;100.00
498;BME280;39559;48.630;9.162;2023-11-21T11:52:49;97260.50;;;7.21;100.00
498;BME280;39559;48.630;9.162;2023-11-21T11:55:22;97268.25;;;7.21;100.00
498;BME280;39559;48.630;9.162;2023-11-21T11:57:52;97270.38;;;7.35;100.00
498;BME280;39559;48.630;9.162;2023-11-21T12:00:22;97266.41;;;7.25;100.00
498;BME280;39559;48.630;9.162;2023-11-21T12:02:54;97270.63;;;7.27;100.00
498;BME280;39559;48.630;9.162;2023-11-21T12:05:37;97264.53;;;7.30;100.00
498;BME280;39559;48.630;9.162;2023-11-21T12:08:10;97265.28;;;7.34;100.00
498;BME280;39559;48.630;9.162;2023-11-21T12:10:38;97266.94;;;7.35;100.00
498;BME280;39559;48.630;9.162;2023-11-21T12:13:09;97257.53;;;7.34;100.00
498;BME280;39559;48.630;9.162;2023-11-21T12:15:36;97262.69;;;7.34;100.00
498;BME280;39559;48.630;9.162;2023-11-21T12:18:02;97266.31;;;7.28;100.00
498;BME280;39559;48.630;9.162;2023-11-21T12:20:29;97260.09;;;7.34;100.00
498;BME280;39559;48.630;9.162;2023-11-21T12:22:58;97258.88;;;7.44;100.00
498;BME280;39559;48.630;9.162;2023-11-21T12:25:29;97267.09;;;7.57;100.00
498;BME280;39559;48.630;9.162;2023-11-21T12:29:36;97273.19;;;7.79;100.00
498;BME280;39559;48.630;9.162;2023-11-21T12:32:03;97281.72;;;8.06;100.00
498;BME280;39559;48.630;9.162;2023-11-21T12:34:29;97287.56;;;8.12;100.00
498;BME280;39559;48.630;9.162;2023-11-21T12:36:55;97273.38;;;8.22;100.00
498;BME280;39559;48.630;9.162;2023-11-21T12:39:22;97273.25;;;8.26;100.00
498;BME280;39559;48.630;9.162;2023-11-21T12:41:48;97279.28;;;8.25;100.00
498;BME280;39559;48.630;9.162;2023-11-21T12:44:14;97293.00;;;8.27;100.00
498;BME280;39559;48.630;9.162;2023-11-21T12:46:42;97299.22;;;8.23;100.00
498;BME280;39559;48.630;9.162;2023-11-21T12:49:11;97284.78;;;7.67;100.00
498;BME280;39559;48.630;9.162;2023-11-21T12:53:37;97270.34;;;8.11;100.00
498;BME280;39559;48.630;9.162;2023-11-21T12:56:21;97259.34;;;8.29;100.00
498;BME280;39559;48.630;9.162;2023-11-21T12:58:50;97260.75;;;8.38;100.00
498;BME280;39559;48.630;9.162;2023-11-21T13:01:18;97260.75;;;8.14;100.00
498;BME280;39559;48.630;9.162;2023-11-21T13:03:48;97257.22;;;8.17;100.00
498;BME280;39559;48.630;9.162;2023-11-21T13:06:16;97227.91;;;7.93;100.00
498;BME280;39559;48.630;9.162;2023-11-21T13:08:44;97225.59;;;7.85;100.00
498;BME280;39559;48.630;9.162;2023-11-21T13:11:10;97230.44;;;8.18;100.00
498;BME280;39559;48.630;9.162;2023-11-21T13:13:36;97232.47;;;8.33;100.00
498;BME280;39559;48.630;9.162;2023-11-21T13:17:34;97217.22;;;8.93;100.00
498;BME280;39559;48.630;9.162;2023-11-21T13:19:59;97209.03;;;9.04;100.00
498;BME280;39559;48.630;9.162;2023-11-21T13:22:30;97204.13;;;9.39;100.00
498;BME280;39559;48.630;9.162;2023-11-21T13:24:58;97199.66;;;9.43;100.00
498;BME280;39559;48.630;9.162;2023-11-21T13:27:24;97195.91;;;8.87;100.00
498;BME280;39559;48.630;9.162;2023-11-21T13:29:51;97200.25;;;8.86;100.00
498;BME280;39559;48.630;9.162;2023-11-21T13:32:17;97206.56;;;8.79;100.00
498;BME280;39559;48.630;9.162;2023-11-21T13:34:46;97225.13;;;8.68;100.00
498;BME280;39559;48.630;9.162;2023-11-21T13:37:13;97226.63;;;8.74;100.00
498;BME280;39559;48.630;9.162;2023-11-21T13:41:33;97233.31;;;8.34;100.00
498;BME280;39559;48.630;9.162;2023-11-21T13:43:59;97248.59;;;7.93;100.00
498;BME280;39559;48.630;9.162;2023-11-21T13:46:51;97247.34;;;7.79;100.00
498;BME280;39559;48.630;9.162;2023-11-21T13:49:17;97265.03;;;7.66;100.00
498;BME280;39559;48.630;9.162;2023-11-21T13:51:43;97275.69;;;7.57;100.00
498;BME280;39559;48.630;9.162;2023-11-21T13:54:16;97270.25;;;7.65;100.00
498;BME280;39559;48.630;9.162;2023-11-21T13:56:42;97273.34;;;7.75;100.00
498;BME280;39559;48.630;9.162;2023-11-21T13:59:10;97286.97;;;7.80;100.00
498;BME280;39559;48.630;9.162;2023-11-21T14:01:57;97289.22;;;7.89;100.00
498;BME280;39559;48.630;9.162;2023-11-21T14:05:31;97296.03;;;7.92;100.00
498;BME280;39559;48.630;9.162;2023-11-21T14:07:59;97300.84;;;8.02;100.00
498;BME280;39559;48.630;9.162;2023-11-21T14:10:32;97299.91;;;8.03;100.00
498;BME280;39559;48.630;9.162;2023-11-21T14:13:09;97294.53;;;7.86;100.00
498;BME280;39559;48.630;9.162;2023-11-21T14:15:41;97308.44;;;7.82;100.00
498;BME280;39559;48.630;9.162;2023-11-21T14:18:11;97301.78;;;7.75;100.00
498;BME280;39559;48.630;9.162;2023-11-21T14:20:38;97295.44;;;7.58;100.00
498;BME280;39559;48.630;9.162;2023-11-21T14:23:05;97293.53;;;7.63;100.00
498;BME280;39559;48.630;9.162;2023-11-21T14:25:35;97305.59;;;7.64;100.00
498;BME280;39559;48.630;9.162;2023-11-21T14:29:30;97298.81;;;7.85;100.00
498;BME280;39559;48.630;9.162;2023-11-21T14:31:56;97294.09;;;7.73;100.00
498;BME280;39559;48.630;9.162;2023-11-21T14:34:23;97297.63;;;7.44;100.00
498;BME280;39559;48.630;9.162;2023-11-21T14:36:50;97294.78;;;7.53;100.00
498;BME280;39559;48.630;9.162;2023-11-21T14:39:15;97302.63;;;7.50;100.00
498;BME280;39559;48.630;9.162;2023-11-21T14:41:53;97315.69;;;7.45;100.00
498;BME280;39559;48.630;9.162;2023-11-21T14:44:21;97322.34;;;7.53;100.00
498;BME280;39559;48.630;9.162;2023-11-21T14:46:52;97330.34;;;7.45;100.00